Time;durP1;ratioP1;P1;durP2;ratioP2;P2;SDS_P1;SDS_P2;PMS_P1;PMS_P2;Temp;Humidity;BMP_temperature;BMP_pressure;BME280_temperature;BME280_humidity;BME280_pressure;Samples;Min_cycle;Max_cycle;Signal;HPM_P1;HPM_P2
2021/06/13 00:01:33;;;;;;;8.07;4.82;;;16.40;99.90;;;;;;5052450;28;20183;-78
2021/06/13 00:03:59;;;;;;;10.35;4.88;;;16.20;99.90;;;;;;5052164;28;20916;-83
2021/06/13 00:06:25;;;;;;;5.20;4.70;;;16.30;99.90;;;;;;5052529;28;20242;-78
2021/06/13 00:08:51;;;;;;;13.88;5.88;;;16.40;99.90;;;;;;5052565;28;20163;-78
2021/06/13 00:11:17;;;;;;;5.97;5.18;;;16.30;99.90;;;;;;5051828;28;20199;-77
2021/06/13 00:13:43;;;;;;;9.52;4.68;;;16.40;99.90;;;;;;5052143;28;20226;-79
2021/06/13 00:16:09;;;;;;;8.15;5.07;;;16.50;99.90;;;;;;5052736;28;20167;-78
2021/06/13 00:18:36;;;;;;;10.23;4.90;;;16.60;99.90;;;;;;5053286;28;20194;-78
2021/06/13 00:21:02;;;;;;;5.90;4.35;;;16.60;99.90;;;;;;5073434;28;20179;-78
2021/06/13 00:23:28;;;;;;;6.57;4.88;;;16.60;99.90;;;;;;5075130;28;20158;-77
2021/06/13 00:25:54;;;;;;;4.95;4.40;;;16.50;99.90;;;;;;5076225;28;20231;-79
2021/06/13 00:28:20;;;;;;;12.55;5.05;;;16.60;99.90;;;;;;5052623;28;20195;-78
2021/06/13 00:30:45;;;;;;;5.65;4.63;;;16.60;99.90;;;;;;5052115;28;20235;-78
2021/06/13 00:33:11;;;;;;;7.35;4.38;;;16.60;99.90;;;;;;5052871;28;20277;-79
2021/06/13 00:35:37;;;;;;;6.07;4.03;;;16.50;99.90;;;;;;5056374;28;20162;-78
2021/06/13 00:38:04;;;;;;;8.13;5.13;;;16.50;99.90;;;;;;5056238;28;20639;-78
2021/06/13 00:40:30;;;;;;;6.15;4.70;;;16.50;99.90;;;;;;5055904;28;20198;-78
2021/06/13 00:42:56;;;;;;;5.88;4.95;;;16.50;99.90;;;;;;5056446;28;20171;-82
2021/06/13 00:45:23;;;;;;;5.40;4.75;;;16.40;99.90;;;;;;5056019;28;20234;-79
2021/06/13 00:47:49;;;;;;;4.78;4.32;;;16.30;99.90;;;;;;5056085;28;20236;-79
2021/06/13 00:50:20;;;;;;;6.65;4.57;;;16.30;99.90;;;;;;5055842;28;20702;-78
2021/06/13 00:52:46;;;;;;;5.82;4.60;;;16.40;99.90;;;;;;5055864;28;20206;-83
2021/06/13 00:55:14;;;;;;;5.97;4.82;;;16.50;99.90;;;;;;5056087;28;20174;-80
2021/06/13 00:57:39;;;;;;;6.72;4.93;;;16.50;99.90;;;;;;5054251;28;20652;-79
2021/06/13 01:00:06;;;;;;;4.90;4.38;;;16.30;99.90;;;;;;5055483;28;20191;-79
2021/06/13 01:02:33;;;;;;;12.13;5.53;;;16.40;99.90;;;;;;5055282;28;20159;-79
2021/06/13 01:04:58;;;;;;;5.55;4.95;;;16.40;99.90;;;;;;5055290;28;20226;-84
2021/06/13 01:07:47;;;;;;;9.07;5.30;;;16.20;99.90;;;;;;5055565;28;20635;-78
2021/06/13 01:10:32;;;;;;;6.28;5.10;;;16.10;99.90;;;;;;5055646;28;20789;-78
2021/06/13 01:13:25;;;;;;;10.02;5.47;;;16.10;99.90;;;;;;5054190;28;20207;-79
2021/06/13 01:16:15;;;;;;;6.97;4.75;;;16.00;99.90;;;;;;5055221;28;20171;-83
2021/06/13 01:19:03;;;;;;;8.13;5.72;;;16.00;99.90;;;;;;5055598;28;20163;-83
2021/06/13 01:21:34;;;;;;;11.70;4.85;;;16.00;99.90;;;;;;5044697;28;20691;-78
2021/06/13 01:24:15;;;;;;;19.90;5.25;;;15.90;99.90;;;;;;5054715;28;20207;-78
2021/06/13 01:26:59;;;;;;;17.58;5.25;;;15.90;99.90;;;;;;5055230;28;20167;-84
2021/06/13 01:29:32;;;;;;;9.48;4.90;;;16.00;99.90;;;;;;5055830;28;20257;-83
2021/06/13 01:32:03;;;;;;;8.27;5.53;;;16.00;99.90;;;;;;5054941;28;20190;-83
2021/06/13 01:34:43;;;;;;;6.30;4.72;;;16.10;99.90;;;;;;5055549;28;20167;-84
2021/06/13 01:37:13;;;;;;;6.15;4.70;;;15.70;99.90;;;;;;5055238;28;20181;-84
2021/06/13 01:39:40;;;;;;;5.93;4.70;;;15.80;99.90;;;;;;5055008;28;20271;-83
2021/06/13 01:42:08;;;;;;;6.18;5.43;;;15.60;99.90;;;;;;5054987;28;20206;-79
2021/06/13 01:44:35;;;;;;;7.28;5.68;;;15.80;99.90;;;;;;5054606;28;20182;-83
2021/06/13 01:47:03;;;;;;;5.35;4.95;;;16.00;99.90;;;;;;5054519;28;20624;-81
2021/06/13 01:49:31;;;;;;;5.15;4.65;;;15.70;99.90;;;;;;5054993;28;20221;-83
2021/06/13 01:51:57;;;;;;;6.22;4.70;;;15.70;99.90;;;;;;5054715;28;20194;-78
2021/06/13 01:54:26;;;;;;;11.82;5.38;;;15.60;99.90;;;;;;5054838;28;20155;-83
2021/06/13 01:56:53;;;;;;;5.57;5.07;;;15.60;99.90;;;;;;5054377;28;20171;-78
2021/06/13 01:59:19;;;;;;;5.82;5.05;;;15.70;99.90;;;;;;5054723;28;20191;-78
2021/06/13 02:01:46;;;;;;;9.65;4.90;;;15.70;99.90;;;;;;5054918;28;20539;-83
2021/06/13 02:04:13;;;;;;;7.85;4.53;;;15.70;99.90;;;;;;5055206;28;20179;-78
2021/06/13 02:06:47;;;;;;;6.82;5.28;;;15.50;99.90;;;;;;5054682;28;20163;-78
2021/06/13 02:09:14;;;;;;;8.35;6.03;;;15.40;99.90;;;;;;5054079;28;20163;-78
2021/06/13 02:11:44;;;;;;;10.35;5.50;;;15.50;99.90;;;;;;5054564;28;20562;-82
2021/06/13 02:14:11;;;;;;;9.48;5.38;;;15.40;99.90;;;;;;5053210;28;20175;-78
2021/06/13 02:16:39;;;;;;;8.45;5.20;;;15.40;99.90;;;;;;5054372;28;20170;-78
2021/06/13 02:19:06;;;;;;;6.63;5.28;;;15.50;99.90;;;;;;5052792;28;20174;-77
2021/06/13 02:21:32;;;;;;;6.28;5.32;;;15.50;99.90;;;;;;5054482;28;20187;-83
2021/06/13 02:23:58;;;;;;;6.88;5.75;;;15.30;99.90;;;;;;5053911;28;20199;-79
2021/06/13 02:26:25;;;;;;;8.55;5.05;;;15.30;99.90;;;;;;5054208;28;20255;-78
2021/06/13 02:28:54;;;;;;;17.15;6.15;;;15.30;99.90;;;;;;5054332;28;20206;-78
2021/06/13 02:31:25;;;;;;;10.20;6.10;;;15.40;99.90;;;;;;5053916;28;20251;-79
2021/06/13 02:33:51;;;;;;;5.82;5.03;;;15.50;99.90;;;;;;5054111;28;20170;-78
2021/06/13 02:36:17;;;;;;;11.25;5.55;;;15.50;99.90;;;;;;5053878;28;20159;-78
2021/06/13 02:38:43;;;;;;;8.70;5.15;;;15.50;99.90;;;;;;5053955;28;20167;-79
2021/06/13 02:41:09;;;;;;;11.85;5.97;;;15.30;99.90;;;;;;5053855;28;20186;-78
2021/06/13 02:43:35;;;;;;;10.13;6.20;;;15.30;99.90;;;;;;5053824;28;20221;-78
2021/06/13 02:46:00;;;;;;;9.73;5.65;;;15.20;99.90;;;;;;5054017;28;20193;-78
2021/06/13 02:48:26;;;;;;;9.65;5.65;;;15.20;99.90;;;;;;5054002;28;20178;-78
2021/06/13 02:50:53;;;;;;;6.07;5.47;;;15.00;99.90;;;;;;5053975;28;20179;-80
2021/06/13 02:53:42;;;;;;;9.35;4.75;;;14.80;99.90;;;;;;5054594;28;20175;-78
2021/06/13 02:56:31;;;;;;;6.43;5.78;;;14.80;99.90;;;;;;5055422;28;20168;-82
2021/06/13 02:59:34;;;;;;;9.80;5.78;;;15.20;99.90;;;;;;5059600;28;20732;-78
2021/06/13 03:02:00;;;;;;;5.38;4.93;;;15.30;99.90;;;;;;5077185;28;20265;-77
2021/06/13 03:04:27;;;;;;;8.98;5.32;;;15.10;99.90;;;;;;5072166;28;20227;-78
2021/06/13 03:06:58;;;;;;;8.75;6.10;;;15.10;99.90;;;;;;5068884;28;20171;-78
2021/06/13 03:09:28;;;;;;;8.20;5.72;;;15.10;99.90;;;;;;5054693;28;20171;-78
2021/06/13 03:11:55;;;;;;;12.70;5.85;;;15.00;99.90;;;;;;5054153;28;20232;-79
2021/06/13 03:14:23;;;;;;;5.90;5.30;;;14.90;99.90;;;;;;5053581;28;20167;-78
2021/06/13 03:16:50;;;;;;;10.82;5.45;;;14.80;99.90;;;;;;5053351;28;20814;-78
2021/06/13 03:19:18;;;;;;;6.60;5.53;;;14.90;99.90;;;;;;5053404;28;20175;-79
2021/06/13 03:21:46;;;;;;;8.73;5.18;;;15.00;99.90;;;;;;5053601;28;20187;-82
2021/06/13 03:24:13;;;;;;;5.85;5.35;;;14.90;99.90;;;;;;5053397;28;20194;-78
2021/06/13 03:26:40;;;;;;;7.75;5.60;;;14.70;99.90;;;;;;5053564;28;20159;-83
2021/06/13 03:29:07;;;;;;;6.45;5.85;;;14.60;99.90;;;;;;5052860;28;20191;-80
2021/06/13 03:31:33;;;;;;;18.75;5.05;;;14.60;99.90;;;;;;5053003;28;20681;-79
2021/06/13 03:33:59;;;;;;;7.70;5.63;;;14.60;99.90;;;;;;5053172;28;20232;-78
2021/06/13 03:36:26;;;;;;;8.88;6.10;;;14.70;99.90;;;;;;5053042;28;20170;-78
2021/06/13 03:38:54;;;;;;;8.77;4.97;;;14.90;99.90;;;;;;5053094;28;20163;-78
2021/06/13 03:41:22;;;;;;;10.13;5.95;;;14.70;99.90;;;;;;5052963;28;20282;-78
2021/06/13 03:43:49;;;;;;;11.88;5.32;;;14.80;99.90;;;;;;5053039;28;20574;-83
2021/06/13 03:46:16;;;;;;;9.32;4.88;;;15.00;99.90;;;;;;5053102;28;20514;-83
2021/06/13 03:48:43;;;;;;;7.15;5.78;;;14.90;99.90;;;;;;5053022;28;20175;-84
2021/06/13 03:51:13;;;;;;;5.97;5.55;;;14.90;99.90;;;;;;5052710;28;20187;-79
2021/06/13 03:53:54;;;;;;;12.15;5.40;;;14.90;99.90;;;;;;5052854;28;20187;-78
2021/06/13 03:56:53;;;;;;;11.88;4.75;;;15.00;99.90;;;;;;5052580;28;20186;-78
2021/06/13 03:59:25;;;;;;;6.60;5.00;;;15.10;99.90;;;;;;5052363;28;20228;-78
2021/06/13 04:01:52;;;;;;;9.32;4.53;;;15.20;99.90;;;;;;5052528;28;20187;-82
2021/06/13 04:04:19;;;;;;;8.43;4.40;;;15.50;99.90;;;;;;5053056;28;20191;-82
2021/06/13 04:06:47;;;;;;;6.78;4.30;;;16.00;99.90;;;;;;5052864;28;20186;-83
2021/06/13 04:09:16;;;;;;;9.77;3.97;;;16.50;99.90;;;;;;5052365;28;20245;-78
2021/06/13 04:11:44;;;;;;;6.15;3.33;;;17.10;99.90;;;;;;5052731;28;20190;-78
2021/06/13 04:14:11;;;;;;;9.77;4.07;;;17.60;99.90;;;;;;5052805;28;20197;-84
2021/06/13 04:16:42;;;;;;;15.57;3.33;;;18.20;99.90;;;;;;5053018;28;20494;-78
2021/06/13 04:19:09;;;;;;;5.20;3.45;;;18.50;99.90;;;;;;5052650;28;20205;-79
2021/06/13 04:21:38;;;;;;;7.35;3.13;;;18.10;99.90;;;;;;5051063;28;20187;-78
2021/06/13 04:24:06;;;;;;;4.75;3.42;;;18.10;99.90;;;;;;5051655;28;20282;-83
2021/06/13 04:26:33;;;;;;;5.28;3.50;;;18.00;99.90;;;;;;5052359;28;20250;-79
2021/06/13 04:28:59;;;;;;;7.45;4.53;;;17.70;99.90;;;;;;5052343;28;20656;-80
2021/06/13 04:31:27;;;;;;;7.93;4.22;;;17.10;99.90;;;;;;5051065;28;20592;-78
2021/06/13 04:33:54;;;;;;;11.48;4.78;;;17.10;99.90;;;;;;5052340;28;20250;-78
2021/06/13 04:36:21;;;;;;;11.10;5.00;;;16.80;99.90;;;;;;5052333;28;20254;-78
2021/06/13 04:38:47;;;;;;;5.95;4.45;;;16.70;99.90;;;;;;5052178;28;20197;-79
2021/06/13 04:41:13;;;;;;;7.03;4.68;;;16.20;99.90;;;;;;5052038;28;20236;-78
2021/06/13 04:43:39;;;;;;;9.50;5.13;;;15.90;99.90;;;;;;5052533;28;20695;-78
2021/06/13 04:46:09;;;;;;;12.65;4.35;;;15.70;99.90;;;;;;5052030;28;20159;-78
2021/06/13 04:48:36;;;;;;;5.28;4.65;;;16.00;99.90;;;;;;5052234;28;20261;-79
2021/06/13 04:51:05;;;;;;;17.38;5.57;;;15.90;99.90;;;;;;5052400;28;20187;-78
2021/06/13 04:53:47;;;;;;;11.43;5.45;;;16.00;99.90;;;;;;5051694;28;20640;-79
2021/06/13 04:56:33;;;;;;;6.80;4.68;;;16.00;99.90;;;;;;5051994;28;20250;-78
2021/06/13 04:58:59;;;;;;;11.88;5.13;;;16.00;99.90;;;;;;5051233;28;20189;-78
2021/06/13 05:01:25;;;;;;;7.22;4.90;;;15.90;99.90;;;;;;5051958;28;20230;-78
2021/06/13 05:03:52;;;;;;;7.40;4.65;;;15.80;99.90;;;;;;5050803;28;20677;-83
2021/06/13 05:06:18;;;;;;;7.20;5.00;;;15.90;99.90;;;;;;5051073;28;20710;-78
2021/06/13 05:08:43;;;;;;;11.43;5.22;;;15.90;99.90;;;;;;5050713;28;20170;-78
2021/06/13 05:11:10;;;;;;;6.38;5.05;;;15.90;99.90;;;;;;5052200;28;20554;-78
2021/06/13 05:13:36;;;;;;;11.38;5.28;;;15.90;99.90;;;;;;5052080;28;20171;-78
2021/06/13 05:16:02;;;;;;;11.45;4.45;;;16.20;99.90;;;;;;5051652;28;20182;-79
2021/06/13 05:18:28;;;;;;;13.18;5.00;;;16.40;99.90;;;;;;5051169;28;20733;-81
2021/06/13 05:20:54;;;;;;;12.50;4.82;;;16.40;99.90;;;;;;5053483;28;20193;-82
2021/06/13 05:23:21;;;;;;;9.10;4.85;;;16.30;99.90;;;;;;5056149;28;20203;-82
2021/06/13 05:25:48;;;;;;;18.45;4.70;;;16.30;99.90;;;;;;5056814;28;20159;-78
2021/06/13 05:28:14;;;;;;;9.13;4.88;;;16.10;99.90;;;;;;5056220;28;20167;-83
2021/06/13 05:30:41;;;;;;;15.13;4.57;;;16.10;99.90;;;;;;5055939;28;20186;-81
2021/06/13 05:33:07;;;;;;;10.25;4.25;;;16.10;99.90;;;;;;5054876;28;20538;-83
2021/06/13 05:35:34;;;;;;;15.15;5.05;;;16.00;99.90;;;;;;5056254;28;20606;-79
2021/06/13 05:38:00;;;;;;;16.42;5.40;;;16.10;99.90;;;;;;5059540;28;20176;-78
2021/06/13 05:40:29;;;;;;;15.05;4.60;;;16.50;99.90;;;;;;5066566;28;20170;-77
2021/06/13 05:42:54;;;;;;;12.15;4.45;;;16.50;99.90;;;;;;5077184;28;20207;-78
2021/06/13 05:45:23;;;;;;;15.20;5.35;;;16.60;99.90;;;;;;5079125;28;20213;-77
2021/06/13 05:47:49;;;;;;;20.02;5.00;;;16.70;99.90;;;;;;5062693;28;20643;-78
2021/06/13 05:50:15;;;;;;;13.50;4.60;;;17.00;99.90;;;;;;5056824;28;20325;-77
2021/06/13 05:52:41;;;;;;;11.93;5.60;;;16.90;99.90;;;;;;5055536;28;20633;-77
2021/06/13 05:55:08;;;;;;;8.70;4.13;;;16.80;99.90;;;;;;5055736;28;20240;-78
2021/06/13 05:57:34;;;;;;;13.48;4.93;;;16.80;99.90;;;;;;5055097;28;20171;-78
2021/06/13 06:00:05;;;;;;;5.60;4.05;;;16.90;99.90;;;;;;5054933;28;20183;-78
2021/06/13 06:02:30;;;;;;;6.68;4.10;;;17.00;99.90;;;;;;5055343;28;20393;-79
2021/06/13 06:04:56;;;;;;;12.85;5.45;;;16.90;99.90;;;;;;5055118;28;20717;-78
2021/06/13 06:07:22;;;;;;;10.00;4.93;;;16.90;99.90;;;;;;5054447;28;20250;-77
2021/06/13 06:09:48;;;;;;;14.80;4.75;;;16.90;99.90;;;;;;5054407;28;20290;-77
2021/06/13 06:12:13;;;;;;;9.55;4.25;;;16.80;99.90;;;;;;5054359;28;20190;-76
2021/06/13 06:14:40;;;;;;;6.43;4.25;;;16.90;99.90;;;;;;5054711;28;20167;-83
2021/06/13 06:17:06;;;;;;;6.47;3.63;;;17.00;99.90;;;;;;5054332;28;20194;-81
2021/06/13 06:19:32;;;;;;;13.70;4.43;;;17.20;99.90;;;;;;5054366;28;20199;-80
2021/06/13 06:21:59;;;;;;;14.20;4.53;;;17.20;99.90;;;;;;5054102;28;20187;-78
2021/06/13 06:24:25;;;;;;;7.63;4.68;;;16.90;99.90;;;;;;5054792;28;20166;-79
2021/06/13 06:26:50;;;;;;;11.18;4.53;;;17.10;99.90;;;;;;5053092;28;20266;-78
2021/06/13 06:29:16;;;;;;;9.50;3.78;;;17.00;99.90;;;;;;5054494;28;20570;-80
2021/06/13 06:31:42;;;;;;;10.05;4.20;;;16.90;99.90;;;;;;5054009;28;20534;-79
2021/06/13 06:34:08;;;;;;;7.70;3.80;;;16.80;99.90;;;;;;5052758;28;20643;-80
2021/06/13 06:36:34;;;;;;;11.13;3.67;;;16.90;99.90;;;;;;5066577;28;20187;-77
2021/06/13 06:38:59;;;;;;;8.38;3.45;;;17.00;99.90;;;;;;5067958;28;20167;-77
2021/06/13 06:41:25;;;;;;;6.32;3.35;;;17.10;99.90;;;;;;5065904;28;20233;-76
2021/06/13 06:43:51;;;;;;;6.10;3.60;;;17.40;99.90;;;;;;5068871;28;20230;-76
2021/06/13 06:46:17;;;;;;;10.50;3.50;;;17.50;99.90;;;;;;5068427;28;20194;-78
2021/06/13 06:48:43;;;;;;;8.20;3.53;;;17.90;99.90;;;;;;5065653;28;20163;-79
2021/06/13 06:51:09;;;;;;;4.72;2.90;;;18.00;99.90;;;;;;5053488;28;20211;-81
2021/06/13 06:53:35;;;;;;;6.78;3.25;;;18.30;99.90;;;;;;5052151;28;20219;-80
2021/06/13 06:56:00;;;;;;;7.60;2.75;;;19.00;99.90;;;;;;5054075;28;20163;-81
2021/06/13 06:58:26;;;;;;;10.68;3.20;;;19.50;99.90;;;;;;5053160;28;20183;-82
2021/06/13 07:00:51;;;;;;;6.07;2.53;;;20.10;99.90;;;;;;5053477;28;20726;-81
2021/06/13 07:03:17;;;;;;;10.40;2.30;;;20.50;99.90;;;;;;5053486;28;20252;-82
2021/06/13 07:05:43;;;;;;;4.57;2.22;;;20.50;99.90;;;;;;5053464;28;20167;-83
2021/06/13 07:08:09;;;;;;;9.35;2.58;;;20.50;99.90;;;;;;5052094;28;20202;-80
2021/06/13 07:10:34;;;;;;;7.20;2.00;;;21.10;99.90;;;;;;5053231;28;20191;-76
2021/06/13 07:13:00;;;;;;;6.13;2.20;;;22.10;99.90;;;;;;5053094;28;20738;-78
2021/06/13 07:15:26;;;;;;;2.85;1.90;;;23.10;99.90;;;;;;5052759;28;20619;-80
2021/06/13 07:17:53;;;;;;;6.47;2.15;;;23.80;99.90;;;;;;5053025;28;20658;-77
2021/06/13 07:20:19;;;;;;;5.13;2.25;;;24.30;99.90;;;;;;5055015;28;20175;-80
2021/06/13 07:22:45;;;;;;;5.93;2.45;;;24.50;99.90;;;;;;5052035;28;20209;-81
2021/06/13 07:25:12;;;;;;;3.70;1.88;;;24.30;99.90;;;;;;5054961;28;20225;-86
2021/06/13 07:27:38;;;;;;;9.18;2.40;;;24.80;99.20;;;;;;5053355;28;20642;-87
2021/06/13 07:30:07;;;;;;;6.63;2.22;;;25.20;98.10;;;;;;5053147;28;20195;-84
2021/06/13 07:32:34;;;;;;;7.72;2.05;;;25.30;97.20;;;;;;5052801;28;20168;-84
2021/06/13 07:34:59;;;;;;;4.35;2.47;;;25.40;96.30;;;;;;5053297;28;20721;-83
2021/06/13 07:37:25;;;;;;;2.63;1.77;;;24.90;96.00;;;;;;5051914;28;20220;-83
2021/06/13 07:39:51;;;;;;;3.58;1.60;;;25.60;96.10;;;;;;5054229;28;20194;-91
2021/06/13 07:42:17;;;;;;;4.78;2.17;;;26.40;94.60;;;;;;5053670;28;20199;-91
2021/06/13 07:44:43;;;;;;;5.72;2.20;;;25.90;93.90;;;;;;5053357;28;20198;-88
2021/06/13 07:47:09;;;;;;;6.53;2.10;;;25.50;93.80;;;;;;5053307;28;20228;-88
2021/06/13 07:49:34;;;;;;;4.22;2.22;;;25.30;94.00;;;;;;5053956;28;20175;-90
2021/06/13 07:52:00;;;;;;;4.22;1.90;;;25.30;94.40;;;;;;5052929;28;20195;-92
2021/06/13 07:54:27;;;;;;;6.10;2.00;;;24.60;94.80;;;;;;5057179;28;20172;-92
2021/06/13 07:56:53;;;;;;;2.55;1.70;;;24.30;95.00;;;;;;5055463;28;20198;-84
2021/06/13 07:59:19;;;;;;;2.25;1.60;;;23.30;95.30;;;;;;5053047;28;20174;-84
2021/06/13 08:01:44;;;;;;;3.33;2.20;;;22.80;96.00;;;;;;5053008;28;20214;-84
2021/06/13 08:04:11;;;;;;;3.50;2.03;;;22.70;95.60;;;;;;5052434;28;20234;-82
2021/06/13 08:06:36;;;;;;;2.70;1.98;;;22.30;96.10;;;;;;5052156;28;20264;-84
2021/06/13 08:09:02;;;;;;;3.78;2.30;;;21.90;96.70;;;;;;5034763;28;20241;-82
2021/06/13 08:11:30;;;;;;;4.82;2.35;;;21.30;97.90;;;;;;5050866;28;20532;-83
2021/06/13 08:13:56;;;;;;;4.97;1.92;;;20.50;99.20;;;;;;5053279;28;20168;-82
2021/06/13 08:16:22;;;;;;;8.40;2.35;;;20.70;99.80;;;;;;5050737;28;20177;-83
2021/06/13 08:18:47;;;;;;;6.53;2.53;;;20.80;99.10;;;;;;5057177;28;20174;-92
2021/06/13 08:21:13;;;;;;;9.45;1.95;;;21.00;98.50;;;;;;5069820;28;20185;-84
2021/06/13 08:23:40;;;;;;;5.10;2.47;;;21.20;98.30;;;;;;5075280;28;20224;-84
2021/06/13 08:26:06;;;;;;;3.00;2.17;;;21.40;99.30;;;;;;5077888;28;20155;-87
2021/06/13 08:28:31;;;;;;;5.50;1.95;;;21.30;98.80;;;;;;5076823;28;20169;-86
2021/06/13 08:30:57;;;;;;;6.28;2.10;;;21.40;98.40;;;;;;5075888;28;20187;-88
2021/06/13 08:33:26;;;;;;;9.85;2.22;;;21.30;98.40;;;;;;5060995;28;20186;-88
2021/06/13 08:35:55;;;;;;;5.30;2.25;;;21.30;98.80;;;;;;5052861;28;20252;-86
2021/06/13 08:38:21;;;;;;;4.90;2.45;;;21.30;99.10;;;;;;5053347;28;20233;-87
2021/06/13 08:40:48;;;;;;;2.55;1.98;;;21.30;98.30;;;;;;5052620;28;20194;-90
2021/06/13 08:43:14;;;;;;;5.00;2.05;;;21.10;99.00;;;;;;5054182;28;20278;-83
2021/06/13 08:45:40;;;;;;;7.40;2.30;;;21.00;98.80;;;;;;5051224;28;20167;-88
2021/06/13 08:48:08;;;;;;;3.67;1.58;;;20.90;99.20;;;;;;5051053;28;20179;-88
2021/06/13 08:50:35;;;;;;;3.40;2.15;;;21.00;98.80;;;;;;5051859;28;20201;-83
2021/06/13 08:53:01;;;;;;;4.80;2.33;;;21.20;99.90;;;;;;5051137;28;20236;-87
2021/06/13 08:55:28;;;;;;;7.53;2.55;;;21.30;98.90;;;;;;5054485;28;20569;-82
2021/06/13 08:57:56;;;;;;;6.53;1.92;;;21.30;98.40;;;;;;5055481;28;20166;-83
2021/06/13 09:00:25;;;;;;;3.20;1.70;;;21.20;98.30;;;;;;5054209;28;20194;-83
2021/06/13 09:02:51;;;;;;;4.20;1.90;;;21.20;98.70;;;;;;5053973;28;20246;-83
2021/06/13 09:05:19;;;;;;;5.70;2.28;;;21.30;99.90;;;;;;5056064;28;20580;-84
2021/06/13 09:07:59;;;;;;;3.63;2.20;;;21.40;99.10;;;;;;5055196;28;20175;-84
2021/06/13 09:10:35;;;;;;;6.22;2.47;;;21.80;98.30;;;;;;5056386;28;20237;-90
2021/06/13 09:13:15;;;;;;;3.35;1.80;;;21.80;98.90;;;;;;5055184;28;20268;-82
2021/06/13 09:15:47;;;;;;;4.28;1.70;;;21.90;98.40;;;;;;5055082;28;20179;-85
2021/06/13 09:18:39;;;;;;;2.70;1.77;;;21.70;98.70;;;;;;5055007;28;20201;-85
2021/06/13 09:21:11;;;;;;;2.88;1.45;;;21.70;98.90;;;;;;5054576;28;20187;-90
2021/06/13 09:23:38;;;;;;;3.25;2.05;;;21.80;98.80;;;;;;5055889;28;20202;-81
2021/06/13 09:26:15;;;;;;;8.05;1.95;;;21.50;99.40;;;;;;5054471;28;20167;-86
2021/06/13 09:28:43;;;;;;;4.07;2.10;;;21.30;99.30;;;;;;5056570;28;20174;-83
2021/06/13 09:31:19;;;;;;;5.93;1.40;;;21.30;99.90;;;;;;5055915;28;20713;-93
2021/06/13 09:33:46;;;;;;;4.88;2.00;;;21.50;99.80;;;;;;5055375;28;20175;-84
2021/06/13 09:36:17;;;;;;;4.38;2.55;;;21.60;99.90;;;;;;5055414;28;20195;-85
2021/06/13 09:38:45;;;;;;;3.35;2.25;;;21.80;99.50;;;;;;5055436;28;20631;-91
2021/06/13 09:41:15;;;;;;;3.42;1.60;;;22.00;99.90;;;;;;5057093;28;20182;-86
2021/06/13 09:43:42;;;;;;;5.00;1.58;;;22.00;98.60;;;;;;5060752;28;20564;-88
2021/06/13 09:46:12;;;;;;;3.25;1.83;;;21.80;99.50;;;;;;5067632;28;20162;-91
2021/06/13 09:48:48;;;;;;;5.53;1.88;;;21.50;99.30;;;;;;5076089;28;20228;-88
2021/06/13 09:51:21;;;;;;;2.47;1.65;;;21.30;99.80;;;;;;5076370;28;20197;-95
2021/06/13 09:53:49;;;;;;;5.53;1.90;;;21.40;99.90;;;;;;5075743;28;20266;-86
2021/06/13 09:56:35;;;;;;;3.92;1.67;;;21.50;99.90;;;;;;5076301;28;20208;-93
2021/06/13 09:59:07;;;;;;;9.25;2.20;;;21.70;99.90;;;;;;5074835;28;20177;-88
2021/06/13 10:01:44;;;;;;;6.68;2.25;;;21.40;99.90;;;;;;5074870;28;20669;-94
2021/06/13 10:04:19;;;;;;;3.90;2.00;;;21.50;99.90;;;;;;5076940;28;20206;-94
2021/06/13 10:06:47;;;;;;;9.10;2.97;;;21.60;99.90;;;;;;5074625;28;20665;-87
2021/06/13 10:09:14;;;;;;;3.88;2.05;;;21.80;99.90;;;;;;5075163;28;20673;-82
2021/06/13 10:11:40;;;;;;;3.80;1.85;;;21.80;99.90;;;;;;5073301;28;20554;-83
2021/06/13 10:14:10;;;;;;;2.90;1.77;;;22.00;99.90;;;;;;5073790;28;20166;-89
2021/06/13 10:16:50;;;;;;;7.82;2.33;;;22.10;99.90;;;;;;5074258;28;20928;-82
2021/06/13 10:19:22;;;;;;;6.50;2.38;;;22.30;99.90;;;;;;5073031;28;20162;-83
2021/06/13 10:21:52;;;;;;;8.27;2.30;;;22.30;99.90;;;;;;5073579;28;20285;-91
2021/06/13 10:24:26;;;;;;;3.53;1.83;;;22.10;99.90;;;;;;5072963;28;20205;-84
2021/06/13 10:27:00;;;;;;;4.88;1.70;;;22.00;99.90;;;;;;5075150;28;20219;-81
2021/06/13 10:29:28;;;;;;;6.78;2.03;;;22.00;99.90;;;;;;5073370;28;20162;-81
2021/06/13 10:31:56;;;;;;;5.53;2.08;;;21.80;99.90;;;;;;5074770;28;20652;-82
2021/06/13 10:34:28;;;;;;;3.40;2.08;;;21.70;99.90;;;;;;5072490;28;20186;-82
2021/06/13 10:36:57;;;;;;;4.43;1.73;;;21.90;99.90;;;;;;5073124;28;20163;-88
2021/06/13 10:39:25;;;;;;;3.40;1.75;;;21.70;99.90;;;;;;5074886;28;20167;-91
2021/06/13 10:41:51;;;;;;;2.80;1.60;;;21.60;99.90;;;;;;5053629;28;20193;-81
2021/06/13 10:44:23;;;;;;;6.20;1.98;;;21.60;99.90;;;;;;5052314;28;20206;-82
2021/06/13 10:46:51;;;;;;;2.78;1.73;;;21.80;99.90;;;;;;5053712;28;20167;-82
2021/06/13 10:49:31;;;;;;;4.32;2.15;;;22.00;99.90;;;;;;5054613;28;20530;-85
2021/06/13 10:52:09;;;;;;;5.25;3.08;;;22.30;99.90;;;;;;5054501;28;20269;-85
2021/06/13 10:54:50;;;;;;;2.80;1.95;;;22.50;99.90;;;;;;5068952;28;20180;-90
2021/06/13 10:57:16;;;;;;;3.30;1.73;;;22.60;99.90;;;;;;5074651;28;20170;-85
2021/06/13 10:59:49;;;;;;;7.70;1.88;;;22.50;99.00;;;;;;5074774;28;20245;-92
2021/06/13 11:02:23;;;;;;;3.33;1.70;;;22.60;99.00;;;;;;5075266;28;20251;-89
2021/06/13 11:05:00;;;;;;;3.42;2.05;;;22.60;99.40;;;;;;5074777;28;20240;-92
2021/06/13 11:07:35;;;;;;;2.67;1.48;;;22.50;98.90;;;;;;5075781;28;20665;-92
2021/06/13 11:10:19;;;;;;;5.15;2.17;;;22.20;99.10;;;;;;5076137;28;20257;-88
2021/06/13 11:12:48;;;;;;;2.47;1.73;;;21.70;99.90;;;;;;5095148;28;20170;-87
2021/06/13 11:15:31;;;;;;;2.03;1.70;;;21.80;99.90;;;;;;5099099;28;20158;-86
2021/06/13 11:18:01;;;;;;;5.68;2.00;;;22.00;99.90;;;;;;5098460;28;20192;-87
2021/06/13 11:20:31;;;;;;;7.32;1.92;;;22.20;99.70;;;;;;5097331;28;20200;-87
2021/06/13 11:22:58;;;;;;;3.35;1.65;;;22.30;99.60;;;;;;5083790;28;20217;-88
2021/06/13 11:25:29;;;;;;;3.60;1.75;;;22.50;99.80;;;;;;5073880;28;20249;-88
2021/06/13 11:28:17;;;;;;;4.28;1.90;;;22.70;99.90;;;;;;5073245;28;20228;-87
2021/06/13 11:31:17;;;;;;;4.25;2.00;;;22.80;99.10;;;;;;5074962;28;20213;-85
2021/06/13 11:33:47;;;;;;;3.53;1.80;;;22.60;99.80;;;;;;5030509;28;20178;-93
2021/06/13 11:36:25;;;;;;;4.82;1.77;;;22.40;99.50;;;;;;5073643;28;20205;-93
2021/06/13 11:39:13;;;;;;;6.28;2.83;;;22.60;99.30;;;;;;5074143;28;20202;-94
2021/06/13 11:41:42;;;;;;;4.78;2.40;;;22.80;99.30;;;;;;5072892;28;20190;-87
2021/06/13 11:44:21;;;;;;;4.03;2.60;;;23.10;99.00;;;;;;5072749;28;20317;-87
2021/06/13 11:46:49;;;;;;;5.47;3.03;;;23.30;98.20;;;;;;5073178;28;20174;-86
2021/06/13 11:49:46;;;;;;;3.20;1.95;;;23.30;98.30;;;;;;5074007;28;20657;-86
2021/06/13 11:52:14;;;;;;;2.67;1.75;;;23.40;98.00;;;;;;5067546;28;20185;-88
2021/06/13 11:54:44;;;;;;;3.58;1.80;;;23.40;98.30;;;;;;5077774;28;20697;-88
2021/06/13 11:57:13;;;;;;;3.03;1.75;;;23.30;98.80;;;;;;5076176;28;20273;-87
2021/06/13 11:59:44;;;;;;;2.95;1.40;;;23.30;97.70;;;;;;5074414;28;20202;-88
2021/06/13 12:02:11;;;;;;;6.18;1.83;;;23.10;97.80;;;;;;5075705;28;20173;-87
2021/06/13 12:04:38;;;;;;;3.88;1.98;;;23.20;98.20;;;;;;5074637;28;20178;-87
2021/06/13 12:07:17;;;;;;;3.20;1.98;;;23.20;98.30;;;;;;5078038;28;20167;-89
2021/06/13 12:09:48;;;;;;;4.85;2.00;;;22.80;98.90;;;;;;5074192;28;20182;-85
2021/06/13 12:12:18;;;;;;;3.50;1.92;;;23.00;99.80;;;;;;5072456;28;20170;-83
2021/06/13 12:14:46;;;;;;;8.80;1.60;;;22.90;99.40;;;;;;5072628;28;20173;-82
2021/06/13 12:17:23;;;;;;;7.68;3.13;;;23.00;98.40;;;;;;5074835;28;20174;-90
2021/06/13 12:19:54;;;;;;;4.15;1.52;;;23.00;99.40;;;;;;5073113;28;20177;-90
2021/06/13 12:22:32;;;;;;;2.95;1.92;;;23.20;98.20;;;;;;5076929;28;20174;-83
2021/06/13 12:27:48;;;;;;;6.15;1.75;;;23.30;98.10;;;;;;5073758;28;20170;-85
2021/06/13 12:30:24;;;;;;;3.78;2.00;;;23.40;98.10;;;;;;5077301;28;20237;-84
2021/06/13 12:33:07;;;;;;;5.65;1.70;;;23.40;99.00;;;;;;5082872;28;20261;-87
2021/06/13 12:35:34;;;;;;;3.72;1.20;;;23.30;97.60;;;;;;5082521;28;20253;-88
2021/06/13 12:38:09;;;;;;;2.90;1.77;;;23.00;97.90;;;;;;5081697;28;20162;-90
2021/06/13 12:40:43;;;;;;;7.22;2.22;;;22.90;97.60;;;;;;5083969;28;20239;-86
2021/06/13 12:43:10;;;;;;;4.05;1.67;;;23.10;97.80;;;;;;5078762;28;20258;-83
2021/06/13 12:45:39;;;;;;;2.85;1.67;;;23.10;98.60;;;;;;5081751;28;20170;-89
2021/06/13 12:48:08;;;;;;;4.18;1.65;;;23.30;97.70;;;;;;5080606;28;20170;-91
2021/06/13 12:50:44;;;;;;;2.17;1.40;;;23.50;97.40;;;;;;5080062;28;20250;-89
2021/06/13 12:53:14;;;;;;;6.22;1.80;;;23.50;97.50;;;;;;5086656;28;20170;-89
2021/06/13 12:55:45;;;;;;;2.25;1.60;;;23.50;96.60;;;;;;5081685;28;20202;-86
2021/06/13 12:58:13;;;;;;;3.15;1.85;;;23.30;95.90;;;;;;5080160;28;20206;-88
2021/06/13 13:00:40;;;;;;;3.83;1.33;;;23.30;97.20;;;;;;5080544;28;20190;-89